createdAt,value
2023-02-05T00:00:06.481Z,1.00
2023-02-05T00:02:39.289Z,1.05
2023-02-05T00:05:09.006Z,1.10
2023-02-05T00:07:38.668Z,1.00
2023-02-05T00:10:16.086Z,1.13
2023-02-05T00:12:49.327Z,1.35
2023-02-05T00:15:22.176Z,1.00
2023-02-05T00:17:52.712Z,1.00
2023-02-05T00:20:28.848Z,1.23
2023-02-05T00:23:01.227Z,1.20
2023-02-05T00:25:28.676Z,1.02
2023-02-05T00:27:59.435Z,1.23
2023-02-05T00:30:30.772Z,1.00
2023-02-05T00:33:03.571Z,1.00
2023-02-05T00:35:33.142Z,1.00
2023-02-05T00:38:09.251Z,1.15
2023-02-05T00:40:45.784Z,1.40
2023-02-05T00:43:12.817Z,1.17
2023-02-05T00:45:49.569Z,1.25
2023-02-05T00:48:28.206Z,0.95
2023-02-05T00:50:58.606Z,1.45
2023-02-05T00:53:31.768Z,1.20
2023-02-05T00:55:59.689Z,1.52
2023-02-05T00:58:37.226Z,1.90
2023-02-05T01:01:05.169Z,1.38
2023-02-05T01:03:41.465Z,1.15
2023-02-05T01:06:09.124Z,1.25
2023-02-05T01:08:40.179Z,1.23
2023-02-05T01:11:09.091Z,1.17
2023-02-05T01:13:42.225Z,1.38
2023-02-05T01:16:13.544Z,1.48
2023-02-05T01:21:51.803Z,1.20
2023-02-05T01:24:25.442Z,1.20
2023-02-05T01:26:58.524Z,1.15
2023-02-05T01:29:31.209Z,1.30
2023-02-05T01:32:00.798Z,1.40
2023-02-05T01:34:30.293Z,1.50
2023-02-05T01:37:02.797Z,1.40
2023-02-05T01:39:37.720Z,0.90
2023-02-05T01:42:11.301Z,1.10
2023-02-05T01:44:41.413Z,1.50
2023-02-05T01:47:14.625Z,1.00
2023-02-05T01:49:50.590Z,1.08
2023-02-05T01:52:27.675Z,1.20
2023-02-05T01:54:57.842Z,1.75
2023-02-05T01:57:30.427Z,1.30
2023-02-05T02:00:00.610Z,1.30
2023-02-05T02:02:30.208Z,1.05
2023-02-05T02:05:04.530Z,1.35
2023-02-05T02:07:35.053Z,0.90
2023-02-05T02:10:05.335Z,1.25
2023-02-05T02:12:42.072Z,1.17
2023-02-05T02:15:18.989Z,0.95
2023-02-05T02:17:55.152Z,1.27
2023-02-05T02:20:27.209Z,1.17
2023-02-05T02:23:13.779Z,1.23
2023-02-05T02:25:53.058Z,0.88
2023-02-05T02:28:30.740Z,1.20
2023-02-05T02:31:05.282Z,1.20
2023-02-05T02:33:37.823Z,1.52
2023-02-05T02:36:19.342Z,1.20
2023-02-05T02:39:05.814Z,1.40
2023-02-05T02:41:45.019Z,1.45
2023-02-05T02:44:23.303Z,1.30
2023-02-05T02:47:05.955Z,1.27
2023-02-05T02:49:42.159Z,1.35
2023-02-05T02:52:15.568Z,1.25
2023-02-05T02:54:49.979Z,1.02
2023-02-05T02:57:22.098Z,1.10
2023-02-05T02:59:56.426Z,1.10
2023-02-05T03:02:29.689Z,1.30
2023-02-05T03:05:08.070Z,1.17
2023-02-05T03:08:08.829Z,1.02
2023-02-05T03:10:47.729Z,1.10
2023-02-05T03:13:23.938Z,1.42
2023-02-05T03:15:59.920Z,1.50
2023-02-05T03:18:35.086Z,1.20
2023-02-05T03:21:12.908Z,1.48
2023-02-05T03:23:48.848Z,1.35
2023-02-05T03:26:32.243Z,1.20
2023-02-05T03:29:05.661Z,1.27
2023-02-05T03:31:38.461Z,1.20
2023-02-05T03:34:23.754Z,1.20
2023-02-05T03:37:10.784Z,1.45
2023-02-05T03:39:47.033Z,1.00
2023-02-05T03:42:37.475Z,1.25
2023-02-05T03:45:13.905Z,1.17
2023-02-05T03:47:56.365Z,1.10
2023-02-05T03:50:34.533Z,1.38
2023-02-05T03:53:21.190Z,1.30
2023-02-05T03:56:14.651Z,1.25
2023-02-05T03:58:51.028Z,1.27
2023-02-05T04:01:23.526Z,1.30
2023-02-05T04:04:02.070Z,1.60
2023-02-05T04:06:35.366Z,1.20
2023-02-05T04:09:12.021Z,1.23
2023-02-05T04:11:45.119Z,1.27
2023-02-05T04:14:18.125Z,1.30
2023-02-05T04:16:49.627Z,1.30
2023-02-05T04:19:25.469Z,1.23
2023-02-05T04:21:55.910Z,1.20
2023-02-05T04:24:25.828Z,1.38
2023-02-05T04:26:58.564Z,1.30
2023-02-05T04:29:31.801Z,1.40
2023-02-05T04:32:04.750Z,1.40
2023-02-05T04:34:39.153Z,1.38
2023-02-05T04:37:06.848Z,1.50
2023-02-05T04:39:39.535Z,1.23
2023-02-05T04:42:09.776Z,1.00
2023-02-05T04:44:40.438Z,1.23
2023-02-05T04:47:09.943Z,1.23
2023-02-05T04:49:45.711Z,1.17
2023-02-05T04:52:15.923Z,1.25
2023-02-05T04:54:48.922Z,0.90
2023-02-05T04:57:19.372Z,1.05
2023-02-05T04:59:49.300Z,0.98
2023-02-05T05:02:24.624Z,1.27
2023-02-05T05:04:56.993Z,1.42
2023-02-05T05:07:33.142Z,1.30
2023-02-05T05:10:07.914Z,1.60
2023-02-05T05:12:38.170Z,1.38
2023-02-05T05:15:11.642Z,1.45
2023-02-05T05:17:41.532Z,1.23
2023-02-05T05:20:31.788Z,1.48
2023-02-05T05:23:02.136Z,1.33
2023-02-05T05:25:35.094Z,1.40
2023-02-05T05:28:08.462Z,0.80
2023-02-05T05:30:47.414Z,1.50
2023-02-05T05:33:25.846Z,1.25
2023-02-05T05:36:01.854Z,1.30
2023-02-05T05:38:31.102Z,1.40
2023-02-05T05:41:19.409Z,1.38
2023-02-05T05:43:49.245Z,1.40
2023-02-05T05:46:22.916Z,1.23
2023-02-05T05:48:53.748Z,1.25
2023-02-05T05:51:25.894Z,1.17
2023-02-05T05:53:53.044Z,1.33
2023-02-05T05:56:28.497Z,1.23
2023-02-05T05:59:01.944Z,1.40
2023-02-05T06:01:31.860Z,1.55
2023-02-05T06:04:06.977Z,1.40
2023-02-05T06:06:42.905Z,1.17
2023-02-05T06:09:10.243Z,1.30
2023-02-05T06:11:42.127Z,1.33
2023-02-05T06:14:12.512Z,1.15
2023-02-05T06:16:45.445Z,1.80
2023-02-05T06:19:20.068Z,1.30
2023-02-05T06:21:47.352Z,2.00
2023-02-05T06:24:20.621Z,1.33
2023-02-05T06:26:51.442Z,1.10
2023-02-05T06:29:22.807Z,1.20
2023-02-05T06:31:52.841Z,0.98
2023-02-05T06:34:30.073Z,1.00
2023-02-05T06:37:02.295Z,1.20
2023-02-05T06:39:33.646Z,1.20
2023-02-05T06:42:06.787Z,1.30
2023-02-05T06:44:42.666Z,1.10
2023-02-05T06:47:17.215Z,1.00
2023-02-05T06:49:47.586Z,1.70
2023-02-05T06:52:18.063Z,1.40
2023-02-05T06:54:51.082Z,1.23
2023-02-05T06:57:23.052Z,1.13
2023-02-05T06:59:53.618Z,1.30
2023-02-05T07:02:25.625Z,1.42
2023-02-05T07:04:55.349Z,1.10
2023-02-05T07:07:26.457Z,1.10
2023-02-05T07:09:54.190Z,1.13
2023-02-05T07:12:24.236Z,1.55
2023-02-05T07:14:56.697Z,1.40
2023-02-05T07:17:27.814Z,1.30
2023-02-05T07:19:57.593Z,1.00
2023-02-05T07:22:27.357Z,1.30
2023-02-05T07:25:04.628Z,1.30
2023-02-05T07:27:36.818Z,0.98
2023-02-05T07:30:05.662Z,1.13
2023-02-05T07:32:38.313Z,1.23
2023-02-05T07:35:05.800Z,1.15
2023-02-05T07:37:37.863Z,0.80
2023-02-05T07:40:14.016Z,1.00
2023-02-05T07:42:44.271Z,1.48
2023-02-05T07:45:14.350Z,1.50
2023-02-05T07:47:50.233Z,1.10
2023-02-05T07:50:22.474Z,1.50
2023-02-05T07:52:49.386Z,1.42
2023-02-05T07:55:22.116Z,1.58
2023-02-05T07:57:54.771Z,1.20
2023-02-05T08:00:30.432Z,1.52
2023-02-05T08:03:03.742Z,1.40
2023-02-05T08:05:36.471Z,1.00
2023-02-05T08:08:07.687Z,1.30
2023-02-05T08:10:38.069Z,1.60
2023-02-05T08:13:08.227Z,1.80
2023-02-05T08:15:40.883Z,1.40
2023-02-05T08:18:16.596Z,1.23
2023-02-05T08:20:49.415Z,2.30
2023-02-05T08:23:16.344Z,2.20
2023-02-05T08:25:49.142Z,2.17
2023-02-05T08:28:22.731Z,1.88
2023-02-05T08:30:56.952Z,2.65
2023-02-05T08:33:29.874Z,3.08
2023-02-05T08:36:02.923Z,2.72
2023-02-05T08:38:37.049Z,2.30
2023-02-05T08:41:15.662Z,2.10
2023-02-05T08:43:49.826Z,1.75
2023-02-05T08:46:40.211Z,2.22
2023-02-05T08:49:17.702Z,2.33
2023-02-05T08:51:50.482Z,2.33
2023-02-05T08:54:20.068Z,2.40
2023-02-05T08:56:53.831Z,2.55
2023-02-05T08:59:30.256Z,2.33
2023-02-05T09:02:04.660Z,2.13
2023-02-05T09:04:40.297Z,2.95
2023-02-05T09:07:13.634Z,2.85
2023-02-05T09:09:46.301Z,2.30
2023-02-05T09:12:22.283Z,2.20
2023-02-05T09:14:55.349Z,1.60
2023-02-05T09:17:28.736Z,2.28
2023-02-05T09:20:04.278Z,2.03
2023-02-05T09:22:34.115Z,2.30
2023-02-05T09:25:08.242Z,2.05
2023-02-05T09:27:39.012Z,2.47
2023-02-05T09:30:09.301Z,2.20
2023-02-05T09:32:42.300Z,2.45
2023-02-05T09:35:12.471Z,2.60
2023-02-05T09:37:44.688Z,2.72
2023-02-05T09:40:23.038Z,2.90
2023-02-05T09:43:09.167Z,2.33
2023-02-05T09:45:57.435Z,2.03
2023-02-05T09:48:41.214Z,2.97
2023-02-05T09:51:15.620Z,2.63
2023-02-05T09:53:50.626Z,2.60
2023-02-05T09:56:23.761Z,2.60
2023-02-05T09:58:56.134Z,2.42
2023-02-05T10:01:36.521Z,2.47
2023-02-05T10:04:16.520Z,2.80
2023-02-05T10:06:55.624Z,2.25
2023-02-05T10:09:37.646Z,2.83
2023-02-05T10:12:26.798Z,2.97
2023-02-05T10:15:05.451Z,2.17
2023-02-05T10:18:05.244Z,2.45
2023-02-05T10:20:50.363Z,2.70
2023-02-05T10:23:40.429Z,2.72
2023-02-05T10:26:14.724Z,1.80
2023-02-05T10:29:17.013Z,2.60
2023-02-05T10:31:54.815Z,1.70
2023-02-05T10:34:41.855Z,2.05
2023-02-05T10:37:20.712Z,1.92
2023-02-05T10:39:51.187Z,1.73
2023-02-05T10:42:54.898Z,1.75
2023-02-05T10:45:26.936Z,2.00
2023-02-05T10:47:55.393Z,1.13
2023-02-05T10:50:28.518Z,2.38
2023-02-05T10:52:58.410Z,2.00
2023-02-05T10:55:28.418Z,1.60
2023-02-05T10:57:58.804Z,1.35
2023-02-05T11:00:29.986Z,1.38
2023-02-05T11:06:08.411Z,1.40
2023-02-05T11:08:39.037Z,2.35
2023-02-05T11:11:15.507Z,1.45
2023-02-05T11:13:51.595Z,1.65
2023-02-05T11:16:33.735Z,1.38
2023-02-05T11:19:10.698Z,1.92
2023-02-05T11:21:57.442Z,1.48
2023-02-05T11:24:31.751Z,2.00
2023-02-05T11:27:29.533Z,1.65
2023-02-05T11:30:03.555Z,1.05
2023-02-05T11:32:37.137Z,2.03
2023-02-05T11:35:20.126Z,1.75
2023-02-05T11:38:00.878Z,2.35
2023-02-05T11:40:38.113Z,2.08
2023-02-05T11:43:17.683Z,2.28
2023-02-05T11:45:54.447Z,2.00
2023-02-05T11:48:44.169Z,2.45
2023-02-05T11:51:31.410Z,2.10
2023-02-05T11:54:05.544Z,1.98
2023-02-05T11:56:38.725Z,3.13
2023-02-05T11:59:10.368Z,2.35
2023-02-05T12:01:43.931Z,1.92
2023-02-05T12:04:22.500Z,2.40
2023-02-05T12:07:22.237Z,2.42
2023-02-05T12:10:05.854Z,2.47
2023-02-05T12:12:47.106Z,2.38
2023-02-05T12:15:25.156Z,2.08
2023-02-05T12:18:02.766Z,2.08
2023-02-05T12:20:43.511Z,1.42
2023-02-05T12:23:29.112Z,1.48
2023-02-05T12:26:08.139Z,2.00
2023-02-05T12:28:54.616Z,2.28
2023-02-05T12:31:30.110Z,1.85
2023-02-05T12:34:15.208Z,1.77
2023-02-05T12:36:51.501Z,1.48
2023-02-05T12:39:39.139Z,2.15
2023-02-05T12:42:27.535Z,2.88
2023-02-05T12:45:07.337Z,1.90
2023-02-05T12:47:49.520Z,2.05
2023-02-05T12:50:34.993Z,1.95
2023-02-05T12:53:17.104Z,1.95
2023-02-05T12:56:01.857Z,2.75
2023-02-05T12:58:39.114Z,2.63
2023-02-05T13:01:20.567Z,1.77
2023-02-05T13:04:00.263Z,3.00
2023-02-05T13:06:36.063Z,1.95
2023-02-05T13:09:11.795Z,2.17
2023-02-05T13:11:46.264Z,1.85
2023-02-05T13:14:30.412Z,1.92
2023-02-05T13:17:06.276Z,1.42
2023-02-05T13:19:36.423Z,1.77
2023-02-05T13:22:24.575Z,0.60
2023-02-05T13:25:15.910Z,1.33
2023-02-05T13:28:02.548Z,2.17
2023-02-05T13:30:36.310Z,2.63
2023-02-05T13:33:05.664Z,2.17
2023-02-05T13:35:38.341Z,1.85
2023-02-05T13:38:20.825Z,1.55
2023-02-05T13:41:15.195Z,1.73
2023-02-05T13:44:05.424Z,1.63
2023-02-05T13:46:50.894Z,1.90
2023-02-05T13:49:38.431Z,1.70
2023-02-05T13:52:14.683Z,1.80
2023-02-05T13:54:59.943Z,1.30
2023-02-05T13:58:05.080Z,2.55
2023-02-05T14:00:39.803Z,2.08
2023-02-05T14:03:28.429Z,1.50
2023-02-05T14:06:00.749Z,1.35
2023-02-05T14:08:31.988Z,1.98
2023-02-05T14:11:03.629Z,2.00
2023-02-05T14:13:37.317Z,1.73
2023-02-05T14:16:23.163Z,1.48
2023-02-05T14:19:02.797Z,1.70
2023-02-05T14:21:33.290Z,1.55
2023-02-05T14:24:23.147Z,1.25
2023-02-05T14:26:55.675Z,1.80
2023-02-05T14:29:41.598Z,1.92
2023-02-05T14:32:27.392Z,2.13
2023-02-05T14:35:09.519Z,1.95
2023-02-05T14:37:47.165Z,2.20
2023-02-05T14:40:25.918Z,1.38
2023-02-05T14:45:59.222Z,2.22
2023-02-05T14:48:32.725Z,1.80
2023-02-05T14:51:03.660Z,0.52
2023-02-05T14:53:40.269Z,1.92
2023-02-05T14:56:12.924Z,1.80
2023-02-05T14:58:48.410Z,2.20
2023-02-05T15:01:30.627Z,1.70
2023-02-05T15:04:04.987Z,1.83
2023-02-05T15:06:42.639Z,1.70
2023-02-05T15:09:24.448Z,0.88
2023-02-05T15:12:19.862Z,1.48
2023-02-05T15:15:40.447Z,1.55
2023-02-05T15:18:32.317Z,2.03
2023-02-05T15:21:06.553Z,1.15
2023-02-05T15:23:46.524Z,1.35
2023-02-05T15:26:34.952Z,2.10
2023-02-05T15:29:09.188Z,1.58
2023-02-05T15:31:44.355Z,2.10
2023-02-05T15:34:36.978Z,1.95
2023-02-05T15:37:17.373Z,2.30
2023-02-05T15:39:57.970Z,1.98
2023-02-05T15:42:38.698Z,1.33
2023-02-05T15:45:20.659Z,1.80
2023-02-05T15:47:59.731Z,2.47
2023-02-05T15:50:31.526Z,2.25
2023-02-05T15:53:01.588Z,1.77
2023-02-05T15:55:34.021Z,2.20
2023-02-05T15:58:09.603Z,2.08
2023-02-05T16:03:39.133Z,2.47
2023-02-05T16:06:21.266Z,2.28
2023-02-05T16:08:57.784Z,2.00
2023-02-05T16:11:35.920Z,2.40
2023-02-05T16:14:14.784Z,2.08
2023-02-05T16:16:56.462Z,2.30
2023-02-05T16:19:34.712Z,1.95
2023-02-05T16:22:19.557Z,2.00
2023-02-05T16:24:49.649Z,1.98
2023-02-05T16:27:29.341Z,2.03
2023-02-05T16:30:02.544Z,2.20
2023-02-05T16:32:36.954Z,1.70
2023-02-05T16:35:15.064Z,1.80
2023-02-05T16:37:44.363Z,1.80
2023-02-05T16:40:20.465Z,2.20
2023-02-05T16:42:54.058Z,2.05
2023-02-05T16:45:24.934Z,2.17
2023-02-05T16:48:10.737Z,2.42
2023-02-05T16:50:45.621Z,1.73
2023-02-05T16:53:19.758Z,1.63
2023-02-05T16:55:59.685Z,2.00
2023-02-05T16:58:31.817Z,1.70
2023-02-05T17:01:07.633Z,1.52
2023-02-05T17:03:39.476Z,1.20
2023-02-05T17:06:13.180Z,1.88
2023-02-05T17:08:55.557Z,1.85
2023-02-05T17:11:44.682Z,2.65
2023-02-05T17:14:20.790Z,2.10
2023-02-05T17:16:59.176Z,2.35
2023-02-05T17:19:31.993Z,1.58
2023-02-05T17:22:14.298Z,2.10
2023-02-05T17:24:55.246Z,1.95
2023-02-05T17:27:32.421Z,1.88
2023-02-05T17:30:08.498Z,1.80
2023-02-05T17:32:42.553Z,1.67
2023-02-05T17:35:25.604Z,2.30
2023-02-05T17:37:56.926Z,1.42
2023-02-05T17:40:30.311Z,2.10
2023-02-05T17:43:03.564Z,1.90
2023-02-05T17:45:41.425Z,1.85
2023-02-05T17:48:15.425Z,1.70
2023-02-05T17:50:48.812Z,1.80
2023-02-05T17:53:18.566Z,1.92
2023-02-05T17:55:57.319Z,2.30
2023-02-05T17:58:34.132Z,1.55
2023-02-05T18:01:01.694Z,1.85
2023-02-05T18:03:34.927Z,1.35
2023-02-05T18:06:06.294Z,1.95
2023-02-05T18:08:39.269Z,2.38
2023-02-05T18:11:18.757Z,2.13
2023-02-05T18:13:52.984Z,2.00
2023-02-05T18:16:25.468Z,1.80
2023-02-05T18:18:59.218Z,1.65
2023-02-05T18:21:32.330Z,1.58
2023-02-05T18:24:12.888Z,1.50
2023-02-05T18:26:49.765Z,1.60
2023-02-05T18:29:22.183Z,1.55
2023-02-05T18:31:53.161Z,2.05
2023-02-05T18:34:23.699Z,1.80
2023-02-05T18:37:07.338Z,1.42
2023-02-05T18:42:44.572Z,1.60
2023-02-05T18:45:17.869Z,1.30
2023-02-05T18:47:51.907Z,1.25
2023-02-05T18:50:23.614Z,2.00
2023-02-05T18:52:57.171Z,1.45
2023-02-05T18:55:29.989Z,1.38
2023-02-05T18:58:06.478Z,1.67
2023-02-05T19:00:45.248Z,1.40
2023-02-05T19:03:18.176Z,1.08
2023-02-05T19:05:51.205Z,1.48
2023-02-05T19:08:19.280Z,1.27
2023-02-05T19:10:52.017Z,1.95
2023-02-05T19:13:24.792Z,1.65
2023-02-05T19:15:58.108Z,1.60
2023-02-05T19:18:32.314Z,1.80
2023-02-05T19:21:16.410Z,1.70
2023-02-05T19:23:55.867Z,1.60
2023-02-05T19:26:34.158Z,1.40
2023-02-05T19:29:05.866Z,1.35
2023-02-05T19:31:41.602Z,1.70
2023-02-05T19:34:12.246Z,1.50
2023-02-05T19:36:45.601Z,1.60
2023-02-05T19:39:21.662Z,1.80
2023-02-05T19:41:55.240Z,1.55
2023-02-05T19:44:27.281Z,1.42
2023-02-05T19:46:59.891Z,2.15
2023-02-05T19:49:33.316Z,1.60
2023-02-05T19:52:05.407Z,1.73
2023-02-05T19:54:37.274Z,1.77
2023-02-05T19:57:10.760Z,2.08
2023-02-05T19:59:44.062Z,2.53
2023-02-05T20:02:22.976Z,2.08
2023-02-05T20:04:52.731Z,1.85
2023-02-05T20:07:22.909Z,2.17
2023-02-05T20:09:52.836Z,2.33
2023-02-05T20:12:25.900Z,2.17
2023-02-05T20:15:01.649Z,2.28
2023-02-05T20:17:35.042Z,2.50
2023-02-05T20:20:13.911Z,2.33
2023-02-05T20:22:49.986Z,2.38
2023-02-05T20:25:23.427Z,3.00
2023-02-05T20:28:02.191Z,2.22
2023-02-05T20:30:47.783Z,2.15
2023-02-05T20:33:20.161Z,3.17
2023-02-05T20:35:51.220Z,2.53
2023-02-05T20:38:26.937Z,2.65
2023-02-05T20:41:12.881Z,3.08
2023-02-05T20:43:49.237Z,2.47
2023-02-05T20:46:21.892Z,3.03
2023-02-05T20:48:54.517Z,1.95
2023-02-05T20:51:28.158Z,2.65
2023-02-05T20:54:05.180Z,2.13
2023-02-05T20:56:37.758Z,1.90
2023-02-05T20:59:06.478Z,2.50
2023-02-05T21:01:43.493Z,2.42
2023-02-05T21:04:14.109Z,2.28
2023-02-05T21:06:48.171Z,2.50
2023-02-05T21:09:18.564Z,2.95
2023-02-05T21:11:56.716Z,2.75
2023-02-05T21:14:30.090Z,2.85
2023-02-05T21:17:02.653Z,2.85
2023-02-05T21:19:33.480Z,2.70
2023-02-05T21:22:10.367Z,2.58
2023-02-05T21:24:42.562Z,2.22
2023-02-05T21:27:13.091Z,3.17
2023-02-05T21:29:43.967Z,2.40
2023-02-05T21:32:18.196Z,2.45
2023-02-05T21:34:50.886Z,2.20
2023-02-05T21:37:23.573Z,2.13
2023-02-05T21:40:08.507Z,2.97
2023-02-05T21:42:40.315Z,2.40
2023-02-05T21:45:16.956Z,2.25
2023-02-05T21:47:47.490Z,2.45
2023-02-05T21:50:19.996Z,3.08
2023-02-05T21:52:50.408Z,2.75
2023-02-05T21:55:22.781Z,2.38
2023-02-05T21:57:53.717Z,2.53
2023-02-05T22:00:34.083Z,2.63
2023-02-05T22:03:04.596Z,2.40
2023-02-05T22:05:37.496Z,2.28
2023-02-05T22:08:34.075Z,2.72
2023-02-05T22:11:03.437Z,3.15
2023-02-05T22:13:37.282Z,2.67
2023-02-05T22:16:08.739Z,2.65
2023-02-05T22:18:41.881Z,2.83
2023-02-05T22:21:44.812Z,2.92
2023-02-05T22:24:21.664Z,2.50
2023-02-05T22:26:54.602Z,2.45
2023-02-05T22:29:29.731Z,3.03
2023-02-05T22:32:02.417Z,2.22
2023-02-05T22:34:36.200Z,2.33
2023-02-05T22:37:04.378Z,2.95
2023-02-05T22:39:34.833Z,2.47
2023-02-05T22:42:02.920Z,2.97
2023-02-05T22:44:36.069Z,2.63
2023-02-05T22:47:06.530Z,2.78
2023-02-05T22:49:37.137Z,2.67
2023-02-05T22:52:08.069Z,2.50
2023-02-05T22:55:01.298Z,3.13
2023-02-05T22:57:33.722Z,2.83
2023-02-05T23:00:06.201Z,2.50
2023-02-05T23:02:39.249Z,2.58
2023-02-05T23:05:06.124Z,2.63
2023-02-05T23:07:38.784Z,2.65
2023-02-05T23:10:10.515Z,2.53
2023-02-05T23:12:43.023Z,2.40
2023-02-05T23:15:14.118Z,1.30
2023-02-05T23:17:45.326Z,1.98
2023-02-05T23:20:17.266Z,2.42
2023-02-05T23:22:49.738Z,2.75
2023-02-05T23:25:24.812Z,2.72
2023-02-05T23:27:57.387Z,2.17
2023-02-05T23:30:26.941Z,2.40
2023-02-05T23:32:56.640Z,2.13
2023-02-05T23:35:25.754Z,2.15
2023-02-05T23:38:01.644Z,1.27
2023-02-05T23:40:34.538Z,2.30
2023-02-05T23:43:07.609Z,3.00
2023-02-05T23:45:37.320Z,2.20
2023-02-05T23:48:10.415Z,2.88
2023-02-05T23:50:44.028Z,2.60
2023-02-05T23:53:14.463Z,2.72
2023-02-05T23:55:47.653Z,2.67
2023-02-05T23:58:21.832Z,2.75
